createdAt,value
2023-11-20T00:04:21.687Z,20.6
2023-11-20T00:09:23.487Z,20.6
2023-11-20T00:14:25.121Z,20.6
2023-11-20T00:19:26.811Z,20.6
2023-11-20T00:24:28.703Z,20.7
2023-11-20T00:29:30.466Z,20.7
2023-11-20T00:34:32.158Z,20.7
2023-11-20T00:39:33.839Z,20.8
2023-11-20T00:44:35.538Z,20.8
2023-11-20T00:49:37.186Z,20.8
2023-11-20T00:54:39.777Z,20.8
2023-11-20T00:59:41.513Z,20.8
2023-11-20T01:04:43.370Z,20.8
2023-11-20T01:09:45.087Z,20.9
2023-11-20T01:14:46.883Z,20.9
2023-11-20T01:19:48.605Z,20.9
2023-11-20T01:24:50.299Z,20.9
2023-11-20T01:29:51.957Z,20.9
2023-11-20T01:34:53.671Z,20.9
2023-11-20T01:39:55.333Z,21
2023-11-20T01:44:56.963Z,21
2023-11-20T01:49:58.628Z,21
2023-11-20T01:55:00.300Z,21.1
2023-11-20T02:00:01.922Z,21.1
2023-11-20T02:05:03.548Z,21.1
2023-11-20T02:10:05.196Z,21.1
2023-11-20T02:15:06.873Z,21.1
2023-11-20T02:20:08.518Z,21.2
2023-11-20T02:25:10.211Z,21.2
2023-11-20T02:30:11.858Z,21.2
2023-11-20T02:35:12.707Z,21.2
2023-11-20T02:40:14.347Z,21.2
2023-11-20T02:45:16.145Z,21.2
2023-11-20T02:50:17.799Z,21.2
2023-11-20T02:55:19.862Z,21.3
2023-11-20T03:00:21.467Z,21.3
2023-11-20T03:05:23.139Z,21.3
2023-11-20T03:10:24.721Z,21.3
2023-11-20T03:15:26.318Z,21.4
2023-11-20T03:20:27.964Z,21.4
2023-11-20T03:25:29.616Z,21.4
2023-11-20T03:30:31.216Z,21.4
2023-11-20T03:35:32.869Z,21.4
2023-11-20T03:40:34.480Z,21.4
2023-11-20T03:45:36.103Z,21.4
2023-11-20T03:50:36.978Z,21.4
2023-11-20T03:55:38.656Z,21.5
2023-11-20T04:00:40.316Z,21.5
2023-11-20T04:05:43.071Z,21.5
2023-11-20T04:10:44.745Z,21.5
2023-11-20T04:15:46.431Z,21.6
2023-11-20T04:20:48.083Z,21.6
2023-11-20T04:25:50.185Z,21.6
2023-11-20T04:30:51.848Z,21.6
2023-11-20T04:35:53.560Z,21.6
2023-11-20T04:40:55.204Z,21.6
2023-11-20T04:45:56.887Z,21.6
2023-11-20T04:50:58.556Z,21.6
2023-11-20T04:56:00.224Z,21.7
2023-11-20T05:01:01.865Z,21.7
2023-11-20T05:06:03.556Z,21.7
2023-11-20T05:11:05.177Z,21.7
2023-11-20T05:16:06.823Z,21.8
2023-11-20T05:21:08.634Z,21.8
2023-11-20T05:26:10.279Z,21.8
2023-11-20T05:31:11.988Z,21.8
2023-11-20T05:36:13.685Z,21.8
2023-11-20T05:41:15.321Z,21.8
2023-11-20T05:46:16.985Z,21.8
2023-11-20T05:51:18.689Z,21.8
2023-11-20T05:56:20.350Z,21.8
2023-11-20T06:01:22.069Z,21.8
2023-11-20T06:06:23.866Z,21.8
2023-11-20T06:11:25.494Z,21.9
2023-11-20T06:16:27.188Z,21.9
2023-11-20T06:21:28.994Z,21.9
2023-11-20T06:26:30.656Z,21.9
2023-11-20T06:31:32.378Z,21.9
2023-11-20T06:36:34.114Z,21.9
2023-11-20T06:41:35.748Z,21.9
2023-11-20T06:46:37.460Z,21.9
2023-11-20T06:51:39.207Z,21.9
2023-11-20T06:56:40.941Z,22
2023-11-20T07:01:42.624Z,22
2023-11-20T07:06:44.402Z,22
2023-11-20T07:11:46.387Z,22
2023-11-20T07:16:48.154Z,22
2023-11-20T07:21:49.993Z,22.1
2023-11-20T07:26:51.694Z,22.1
2023-11-20T07:31:53.402Z,22.1
2023-11-20T07:36:55.237Z,22.1
2023-11-20T07:41:56.926Z,22.1
2023-11-20T07:46:58.687Z,22.1
2023-11-20T07:52:00.434Z,22.1
2023-11-20T07:57:02.297Z,22.1
2023-11-20T08:02:04.117Z,22.1
2023-11-20T08:07:05.862Z,22.1
2023-11-20T08:12:07.609Z,22.1
2023-11-20T08:17:11.687Z,22.1
2023-11-20T08:22:15.322Z,22.1
2023-11-20T08:27:17.065Z,22.2
2023-11-20T08:32:18.779Z,22.2
2023-11-20T08:37:20.540Z,22.2
2023-11-20T08:42:22.296Z,21.9
2023-11-20T08:47:23.215Z,21.8
2023-11-20T08:52:24.214Z,21.8
2023-11-20T08:57:25.936Z,21.8
2023-11-20T09:02:27.797Z,21.8
2023-11-20T09:07:29.502Z,21.8
2023-11-20T09:12:31.145Z,21.8
2023-11-20T09:17:32.853Z,21.8
2023-11-20T09:22:34.540Z,21.8
2023-11-20T09:27:36.184Z,21.8
2023-11-20T09:37:44.465Z,21.9
2023-11-20T09:42:46.184Z,21.9
2023-11-20T09:47:48.230Z,21.9
2023-11-20T09:52:49.996Z,21.9
2023-11-20T09:57:51.654Z,21.9
2023-11-20T10:02:53.309Z,21.9
2023-11-20T10:07:55.120Z,21.9
2023-11-20T10:12:56.790Z,21.9
2023-11-20T10:18:00.766Z,21.9
2023-11-20T10:23:03.914Z,21.9
2023-11-20T10:28:05.615Z,21.9
2023-11-20T10:33:07.419Z,21.9
2023-11-20T10:38:09.145Z,21.9
2023-11-20T10:43:10.831Z,21.9
2023-11-20T10:48:12.698Z,21.9
2023-11-20T10:53:14.548Z,22
2023-11-20T10:58:16.225Z,22
2023-11-20T11:03:18.741Z,22
2023-11-20T11:08:21.093Z,22
2023-11-20T11:13:22.799Z,22
2023-11-20T11:18:24.644Z,22
2023-11-20T11:23:26.463Z,22
2023-11-20T11:28:28.258Z,22.1
2023-11-20T11:33:29.946Z,22.1
2023-11-20T11:38:31.623Z,22.1
2023-11-20T11:43:33.351Z,22.1
2023-11-20T11:48:35.136Z,22.1
2023-11-20T11:53:36.890Z,22.1
2023-11-20T11:58:38.751Z,22.1
2023-11-20T12:03:40.510Z,22.1
2023-11-20T12:08:42.319Z,22.1
2023-11-20T12:13:44.018Z,22.1
2023-11-20T12:18:45.780Z,22.1
2023-11-20T12:23:49.438Z,22.1
2023-11-20T12:28:52.271Z,22.1
2023-11-20T12:33:53.948Z,22.1
2023-11-20T12:44:01.348Z,22.1
2023-11-20T12:49:03.072Z,22.2
2023-11-20T12:54:04.774Z,22.2
2023-11-20T12:59:06.490Z,22.2
2023-11-20T13:04:08.482Z,22.2
2023-11-20T13:09:10.379Z,22.2
2023-11-20T13:14:12.109Z,22.2
2023-11-20T13:19:13.828Z,22.2
2023-11-20T13:24:15.650Z,22.2
2023-11-20T13:29:17.341Z,22.2
2023-11-20T13:34:19.057Z,22.2
2023-11-20T13:39:21.036Z,22.2
2023-11-20T13:44:22.048Z,22.2
2023-11-20T13:49:23.745Z,22.2
2023-11-20T13:54:25.394Z,22.2
2023-11-20T13:59:27.105Z,22.2
2023-11-20T14:04:28.910Z,22.2
2023-11-20T14:09:30.666Z,22.2
2023-11-20T14:14:32.394Z,22.2
2023-11-20T14:19:34.082Z,22.3
2023-11-20T14:24:35.799Z,22.3
2023-11-20T14:29:37.497Z,22.3
2023-11-20T14:34:39.213Z,22.3
2023-11-20T14:39:40.881Z,22.3
2023-11-20T14:44:42.592Z,22.3
2023-11-20T14:49:43.449Z,22.3
2023-11-20T14:54:45.128Z,22.3
2023-11-20T14:59:46.855Z,22.3
2023-11-20T15:04:48.605Z,22.3
2023-11-20T15:09:50.404Z,22.3
2023-11-20T15:14:52.096Z,22.3
2023-11-20T15:19:53.780Z,22.4
2023-11-20T15:24:55.542Z,22.4
2023-11-20T15:29:57.499Z,22.4
2023-11-20T15:34:59.183Z,22.4
2023-11-20T15:40:00.966Z,22.4
2023-11-20T15:45:02.781Z,22.4
2023-11-20T15:50:04.443Z,22.4
2023-11-20T15:55:06.160Z,22.4
2023-11-20T16:00:07.909Z,22.4
2023-11-20T16:05:09.617Z,22.4
2023-11-20T16:10:14.908Z,22.4
2023-11-20T16:15:18.588Z,22.4
2023-11-20T16:20:20.434Z,22.4
2023-11-20T16:25:21.379Z,22.4
2023-11-20T16:30:23.153Z,22.4
2023-11-20T16:35:24.909Z,22.4
2023-11-20T16:40:26.760Z,22.4
2023-11-20T16:45:28.501Z,22.4
2023-11-20T16:50:30.193Z,22.4
2023-11-20T16:55:31.916Z,22.4
2023-11-20T17:00:33.700Z,22.4
2023-11-20T17:05:35.708Z,22.4
2023-11-20T17:10:37.446Z,22.5
2023-11-20T17:15:39.234Z,22.4
2023-11-20T17:20:40.931Z,22.5
2023-11-20T17:25:42.661Z,22.5
2023-11-20T17:30:43.802Z,22.5
2023-11-20T17:35:45.672Z,22.5
2023-11-20T17:40:46.542Z,22.5
2023-11-20T17:45:48.282Z,22.5
2023-11-20T17:50:50.053Z,22.5
2023-11-20T17:55:52.403Z,22.5
2023-11-20T18:00:54.140Z,22.5
2023-11-20T18:05:55.961Z,22.5
2023-11-20T18:10:57.152Z,22.6
2023-11-20T18:15:59.021Z,22.6
2023-11-20T18:21:00.764Z,22.5
2023-11-20T18:26:02.459Z,22.6
2023-11-20T18:31:04.204Z,22.6
2023-11-20T18:36:05.985Z,22.6
2023-11-20T18:41:07.690Z,22.6
2023-11-20T18:46:09.541Z,22.6
2023-11-20T18:51:11.291Z,22.6
2023-11-20T18:56:13.002Z,22.6
2023-11-20T19:01:14.765Z,22.6
2023-11-20T19:06:16.481Z,22.6
2023-11-20T19:11:18.177Z,22.6
2023-11-20T19:16:19.959Z,22.6
2023-11-20T19:21:21.715Z,22.6
2023-11-20T19:26:23.419Z,22.6
2023-11-20T19:31:25.329Z,22.6
2023-11-20T19:36:27.191Z,25.4
2023-11-20T19:41:28.997Z,28.4
2023-11-20T19:46:29.431Z,30.9
2023-11-20T19:51:29.867Z,33.7
2023-11-20T19:56:30.251Z,36.7
2023-11-20T20:01:30.687Z,39.7
2023-11-20T20:06:31.291Z,42.2
2023-11-20T20:11:31.890Z,42.6
2023-11-20T20:16:32.544Z,42.6
2023-11-20T20:21:33.650Z,42.6
2023-11-20T20:26:34.259Z,42.9
2023-11-20T20:31:34.921Z,43.1
2023-11-20T20:36:35.614Z,43.2
2023-11-20T20:41:36.216Z,43.2
2023-11-20T20:46:36.912Z,43.1
2023-11-20T20:51:37.667Z,43.1
2023-11-20T20:56:38.254Z,43.1
2023-11-20T21:01:38.923Z,43.1
2023-11-20T21:06:39.641Z,43.1
2023-11-20T21:11:40.383Z,43.1
2023-11-20T21:16:41.017Z,43.1
2023-11-20T21:21:41.769Z,43
2023-11-20T21:26:42.392Z,43
2023-11-20T21:31:43.046Z,42.8
2023-11-20T21:36:43.666Z,42.5
2023-11-20T21:41:45.107Z,42.4
2023-11-20T21:46:45.732Z,42.4
2023-11-20T21:51:46.429Z,42.4
2023-11-20T21:56:47.045Z,42.3
2023-11-20T22:01:47.696Z,42.3
2023-11-20T22:06:48.349Z,42.2
2023-11-20T22:11:48.928Z,42.2
2023-11-20T22:16:49.588Z,42.1
2023-11-20T22:21:50.222Z,42.1
2023-11-20T22:26:50.761Z,42.1
2023-11-20T22:31:51.400Z,42.1
2023-11-20T22:36:52.093Z,42
2023-11-20T22:41:52.661Z,42
2023-11-20T22:46:53.251Z,41.9
2023-11-20T22:51:53.822Z,41.9
2023-11-20T22:56:54.399Z,41.9
2023-11-20T23:01:54.978Z,41.9
2023-11-20T23:06:55.597Z,41.9
2023-11-20T23:11:56.141Z,41.8
2023-11-20T23:16:56.655Z,41.7
2023-11-20T23:21:57.219Z,41.7
2023-11-20T23:26:57.741Z,41.7
2023-11-20T23:31:58.310Z,41.7
2023-11-20T23:36:58.860Z,41.6
2023-11-20T23:41:59.373Z,41.6
2023-11-20T23:46:59.934Z,41.6
2023-11-20T23:52:00.536Z,41.6
2023-11-20T23:57:01.049Z,41.5
